Irving, TX

3:51 AM CDT on April 02, 2015 (GMT -0500)
Grand Prairie Municipal | | Change Station
CLOSE
Current Station
Airport
Location: Grand Prairie,
Elevation: 591 ft
Nearby Weather Stations

Elev 591 ft 32.70 °N, 97.05 °W | Updated 8 hours ago

Mostly Cloudy
Mostly Cloudy
68 °F
Feels Like 68 °F
N
14
Wind Variable Wind from South
Gusts 26 mph

Today
High -- | Low -- °F
--% Chance of Precip.
Yesterday
High -- | Low -- °F
Precip. -- in
7:14 AM 7:48 PM
Waxing Gibbous, 96% visible
Pressure 29.82 in
Visibility 10.0 miles
Clouds Clear
Dew Point 64 °F
Humidity 87%
Rainfall 0.00 in
Snow Depth Not available.
UV 0 out of 12
Pollen 11.70 out of 12
Air Quality Not available.
Flu Activity Not available.
METAR KGPM 020050Z 17009KT 10SM SKC 24/18 A2982

More Conditions Fewer Conditions

Pressure 29.82 in
Visibility 10.0 miles
Clouds Clear
Dew Point 64 °F
Humidity 87%
Rainfall 0.00 in
Snow Depth Not available.
UV 0 out of 12
Pollen 11.70 out of 12
Air Quality Not available.
Flu Activity Not available.
METAR KGPM 020050Z 17009KT 10SM SKC 24/18 A2982

More Conditions Fewer Conditions

10-Day Weather Forecast

Almanac

Astronomy

Apr. 02, 2015 Rise Set
Actual Time
Civil Twilight
Nautical Twilight
Astronomical Twilight
Moon
Length of Visible Light
Length of Day
Tomorrow will be .
, % of the Moon is Illuminated

Today's Extremes

State Highs State Lows

Community

WunderPhotos

Upload Photos

1,810,208 photos uploaded!

WunderBlogs® & News

Nearby

Air Quality

  Air Quality AQ Index Pollutant
Not available.

Snow Depth

Station Depth Elevation

Earthquake Activity

City Distance Mag. Time & Date
Minimum magnitude displayed is 2.5.

Coastal Water Temperatures

Place Temperature

Stations

Nearby Weather Stations

Station Location Temp. Windchill Dew Point Humidity Wind Precip. Elev Updated Type